sensor_id;sensor_type;location;lat;lon;timestamp;P1;durP1;ratioP1;P2;durP2;ratioP2
27612;SDS011;15036;48.094;-1.690;2023-06-26T00:01:29;6.95;;;2.17;;
27612;SDS011;15036;48.094;-1.690;2023-06-26T00:03:56;8.63;;;2.50;;
27612;SDS011;15036;48.094;-1.690;2023-06-26T00:06:22;8.07;;;2.03;;
27612;SDS011;15036;48.094;-1.690;2023-06-26T00:08:50;9.65;;;2.25;;
27612;SDS011;15036;48.094;-1.690;2023-06-26T00:11:16;6.30;;;2.25;;
27612;SDS011;15036;48.094;-1.690;2023-06-26T00:13:42;10.65;;;2.22;;
27612;SDS011;15036;48.094;-1.690;2023-06-26T00:16:07;8.38;;;2.47;;
27612;SDS011;15036;48.094;-1.690;2023-06-26T00:18:32;7.13;;;2.50;;
27612;SDS011;15036;48.094;-1.690;2023-06-26T00:20:58;4.22;;;1.90;;
27612;SDS011;15036;48.094;-1.690;2023-06-26T00:23:23;7.45;;;2.60;;
27612;SDS011;15036;48.094;-1.690;2023-06-26T00:25:48;8.20;;;2.35;;
27612;SDS011;15036;48.094;-1.690;2023-06-26T00:28:14;7.97;;;2.20;;
27612;SDS011;15036;48.094;-1.690;2023-06-26T00:30:39;8.95;;;2.40;;
27612;SDS011;15036;48.094;-1.690;2023-06-26T00:33:04;8.82;;;2.50;;
27612;SDS011;15036;48.094;-1.690;2023-06-26T00:35:30;8.73;;;2.42;;
27612;SDS011;15036;48.094;-1.690;2023-06-26T00:37:55;10.15;;;2.40;;
27612;SDS011;15036;48.094;-1.690;2023-06-26T00:40:21;9.27;;;2.40;;
27612;SDS011;15036;48.094;-1.690;2023-06-26T00:42:46;9.80;;;2.53;;
27612;SDS011;15036;48.094;-1.690;2023-06-26T00:45:11;11.35;;;2.47;;
27612;SDS011;15036;48.094;-1.690;2023-06-26T00:47:37;9.38;;;3.00;;
27612;SDS011;15036;48.094;-1.690;2023-06-26T00:50:02;7.07;;;2.53;;
27612;SDS011;15036;48.094;-1.690;2023-06-26T00:52:29;7.35;;;2.33;;
27612;SDS011;15036;48.094;-1.690;2023-06-26T00:54:54;9.07;;;2.42;;
27612;SDS011;15036;48.094;-1.690;2023-06-26T00:57:20;12.15;;;2.78;;
27612;SDS011;15036;48.094;-1.690;2023-06-26T00:59:45;9.45;;;2.95;;
27612;SDS011;15036;48.094;-1.690;2023-06-26T01:02:11;9.77;;;2.50;;
27612;SDS011;15036;48.094;-1.690;2023-06-26T01:04:36;8.00;;;2.60;;
27612;SDS011;15036;48.094;-1.690;2023-06-26T01:07:02;9.73;;;2.85;;
27612;SDS011;15036;48.094;-1.690;2023-06-26T01:09:29;11.45;;;3.05;;
27612;SDS011;15036;48.094;-1.690;2023-06-26T01:11:56;8.60;;;2.15;;
27612;SDS011;15036;48.094;-1.690;2023-06-26T01:14:21;11.65;;;2.80;;
27612;SDS011;15036;48.094;-1.690;2023-06-26T01:16:46;6.25;;;2.30;;
27612;SDS011;15036;48.094;-1.690;2023-06-26T01:19:18;11.15;;;2.78;;
27612;SDS011;15036;48.094;-1.690;2023-06-26T01:21:50;9.60;;;2.75;;
27612;SDS011;15036;48.094;-1.690;2023-06-26T01:24:19;6.93;;;2.50;;
27612;SDS011;15036;48.094;-1.690;2023-06-26T01:26:45;8.35;;;2.90;;
27612;SDS011;15036;48.094;-1.690;2023-06-26T01:29:13;8.73;;;2.55;;
27612;SDS011;15036;48.094;-1.690;2023-06-26T01:31:40;9.48;;;2.97;;
27612;SDS011;15036;48.094;-1.690;2023-06-26T01:34:06;10.10;;;2.90;;
27612;SDS011;15036;48.094;-1.690;2023-06-26T01:36:32;8.40;;;2.42;;
27612;SDS011;15036;48.094;-1.690;2023-06-26T01:38:57;12.82;;;3.05;;
27612;SDS011;15036;48.094;-1.690;2023-06-26T01:41:23;8.00;;;2.42;;
27612;SDS011;15036;48.094;-1.690;2023-06-26T01:44:05;8.13;;;3.20;;
27612;SDS011;15036;48.094;-1.690;2023-06-26T01:49:45;11.85;;;2.97;;
27612;SDS011;15036;48.094;-1.690;2023-06-26T01:52:17;7.72;;;2.78;;
27612;SDS011;15036;48.094;-1.690;2023-06-26T01:54:58;7.32;;;2.72;;
27612;SDS011;15036;48.094;-1.690;2023-06-26T01:57:42;9.35;;;2.90;;
27612;SDS011;15036;48.094;-1.690;2023-06-26T02:00:10;10.82;;;3.00;;
27612;SDS011;15036;48.094;-1.690;2023-06-26T02:02:38;7.15;;;2.70;;
27612;SDS011;15036;48.094;-1.690;2023-06-26T02:05:05;10.43;;;2.63;;
27612;SDS011;15036;48.094;-1.690;2023-06-26T02:07:31;12.20;;;3.13;;
27612;SDS011;15036;48.094;-1.690;2023-06-26T02:09:56;10.18;;;3.17;;
27612;SDS011;15036;48.094;-1.690;2023-06-26T02:12:21;9.95;;;3.00;;
27612;SDS011;15036;48.094;-1.690;2023-06-26T02:14:47;8.57;;;2.80;;
27612;SDS011;15036;48.094;-1.690;2023-06-26T02:17:12;8.75;;;2.90;;
27612;SDS011;15036;48.094;-1.690;2023-06-26T02:19:37;8.43;;;3.17;;
27612;SDS011;15036;48.094;-1.690;2023-06-26T02:22:12;12.88;;;3.42;;
27612;SDS011;15036;48.094;-1.690;2023-06-26T02:24:39;10.38;;;3.00;;
27612;SDS011;15036;48.094;-1.690;2023-06-26T02:27:04;8.43;;;3.25;;
27612;SDS011;15036;48.094;-1.690;2023-06-26T02:29:29;11.77;;;3.42;;
27612;SDS011;15036;48.094;-1.690;2023-06-26T02:31:55;8.95;;;3.47;;
27612;SDS011;15036;48.094;-1.690;2023-06-26T02:34:20;11.85;;;3.50;;
27612;SDS011;15036;48.094;-1.690;2023-06-26T02:36:45;9.35;;;3.22;;
27612;SDS011;15036;48.094;-1.690;2023-06-26T02:39:11;11.25;;;3.40;;
27612;SDS011;15036;48.094;-1.690;2023-06-26T02:41:36;10.65;;;3.22;;
27612;SDS011;15036;48.094;-1.690;2023-06-26T02:44:01;11.43;;;3.38;;
27612;SDS011;15036;48.094;-1.690;2023-06-26T02:46:27;13.77;;;3.58;;
27612;SDS011;15036;48.094;-1.690;2023-06-26T02:48:52;10.57;;;3.30;;
27612;SDS011;15036;48.094;-1.690;2023-06-26T02:51:17;10.23;;;3.42;;
27612;SDS011;15036;48.094;-1.690;2023-06-26T02:53:43;9.35;;;3.60;;
27612;SDS011;15036;48.094;-1.690;2023-06-26T02:56:08;9.07;;;3.25;;
27612;SDS011;15036;48.094;-1.690;2023-06-26T02:58:33;12.02;;;3.60;;
27612;SDS011;15036;48.094;-1.690;2023-06-26T03:00:59;8.80;;;3.20;;
27612;SDS011;15036;48.094;-1.690;2023-06-26T03:03:24;15.43;;;4.05;;
27612;SDS011;15036;48.094;-1.690;2023-06-26T03:05:50;14.27;;;3.63;;
27612;SDS011;15036;48.094;-1.690;2023-06-26T03:08:15;13.32;;;3.80;;
27612;SDS011;15036;48.094;-1.690;2023-06-26T03:10:41;9.23;;;3.45;;
27612;SDS011;15036;48.094;-1.690;2023-06-26T03:13:06;12.80;;;3.55;;
27612;SDS011;15036;48.094;-1.690;2023-06-26T03:15:32;11.73;;;3.25;;
27612;SDS011;15036;48.094;-1.690;2023-06-26T03:17:57;12.80;;;3.75;;
27612;SDS011;15036;48.094;-1.690;2023-06-26T03:20:22;14.90;;;3.58;;
27612;SDS011;15036;48.094;-1.690;2023-06-26T03:22:48;13.93;;;3.58;;
27612;SDS011;15036;48.094;-1.690;2023-06-26T03:25:13;11.13;;;3.88;;
27612;SDS011;15036;48.094;-1.690;2023-06-26T03:27:38;8.88;;;3.58;;
27612;SDS011;15036;48.094;-1.690;2023-06-26T03:30:04;11.98;;;3.67;;
27612;SDS011;15036;48.094;-1.690;2023-06-26T03:32:29;12.32;;;3.60;;
27612;SDS011;15036;48.094;-1.690;2023-06-26T03:34:55;12.20;;;3.60;;
27612;SDS011;15036;48.094;-1.690;2023-06-26T03:37:21;9.77;;;3.65;;
27612;SDS011;15036;48.094;-1.690;2023-06-26T03:39:47;13.32;;;3.47;;
27612;SDS011;15036;48.094;-1.690;2023-06-26T03:42:12;11.70;;;3.28;;
27612;SDS011;15036;48.094;-1.690;2023-06-26T03:44:37;9.20;;;3.38;;
27612;SDS011;15036;48.094;-1.690;2023-06-26T03:47:03;10.18;;;3.75;;
27612;SDS011;15036;48.094;-1.690;2023-06-26T03:49:28;11.05;;;3.72;;
27612;SDS011;15036;48.094;-1.690;2023-06-26T03:51:53;13.13;;;3.90;;
27612;SDS011;15036;48.094;-1.690;2023-06-26T03:54:19;12.20;;;3.42;;
27612;SDS011;15036;48.094;-1.690;2023-06-26T03:56:44;13.80;;;3.60;;
27612;SDS011;15036;48.094;-1.690;2023-06-26T03:59:10;13.45;;;3.70;;
27612;SDS011;15036;48.094;-1.690;2023-06-26T04:01:36;9.63;;;4.05;;
27612;SDS011;15036;48.094;-1.690;2023-06-26T04:04:02;10.80;;;3.72;;
27612;SDS011;15036;48.094;-1.690;2023-06-26T04:06:28;9.48;;;3.58;;
27612;SDS011;15036;48.094;-1.690;2023-06-26T04:08:53;9.45;;;3.45;;
27612;SDS011;15036;48.094;-1.690;2023-06-26T04:11:18;8.35;;;3.50;;
27612;SDS011;15036;48.094;-1.690;2023-06-26T04:13:44;13.68;;;3.90;;
27612;SDS011;15036;48.094;-1.690;2023-06-26T04:16:09;10.73;;;3.55;;
27612;SDS011;15036;48.094;-1.690;2023-06-26T04:18:36;8.15;;;3.40;;
27612;SDS011;15036;48.094;-1.690;2023-06-26T04:21:05;11.65;;;3.50;;
27612;SDS011;15036;48.094;-1.690;2023-06-26T04:23:33;13.52;;;3.67;;
27612;SDS011;15036;48.094;-1.690;2023-06-26T04:25:58;10.23;;;3.92;;
27612;SDS011;15036;48.094;-1.690;2023-06-26T04:28:24;12.93;;;3.67;;
27612;SDS011;15036;48.094;-1.690;2023-06-26T04:30:50;9.48;;;3.88;;
27612;SDS011;15036;48.094;-1.690;2023-06-26T04:33:15;10.43;;;4.20;;
27612;SDS011;15036;48.094;-1.690;2023-06-26T04:35:40;11.85;;;3.92;;
27612;SDS011;15036;48.094;-1.690;2023-06-26T04:38:06;11.05;;;4.35;;
27612;SDS011;15036;48.094;-1.690;2023-06-26T04:40:31;8.55;;;3.40;;
27612;SDS011;15036;48.094;-1.690;2023-06-26T04:42:56;12.32;;;3.90;;
27612;SDS011;15036;48.094;-1.690;2023-06-26T04:45:22;9.45;;;3.75;;
27612;SDS011;15036;48.094;-1.690;2023-06-26T04:47:47;11.48;;;4.38;;
27612;SDS011;15036;48.094;-1.690;2023-06-26T04:50:12;13.32;;;4.00;;
27612;SDS011;15036;48.094;-1.690;2023-06-26T04:52:38;11.73;;;3.92;;
27612;SDS011;15036;48.094;-1.690;2023-06-26T04:55:03;11.02;;;3.30;;
27612;SDS011;15036;48.094;-1.690;2023-06-26T04:57:29;11.20;;;4.18;;
27612;SDS011;15036;48.094;-1.690;2023-06-26T04:59:54;10.57;;;3.70;;
27612;SDS011;15036;48.094;-1.690;2023-06-26T05:02:19;12.90;;;4.05;;
27612;SDS011;15036;48.094;-1.690;2023-06-26T05:04:45;16.02;;;4.30;;
27612;SDS011;15036;48.094;-1.690;2023-06-26T05:07:12;12.80;;;4.18;;
27612;SDS011;15036;48.094;-1.690;2023-06-26T05:09:37;12.82;;;3.95;;
27612;SDS011;15036;48.094;-1.690;2023-06-26T05:12:02;17.50;;;4.90;;
27612;SDS011;15036;48.094;-1.690;2023-06-26T05:14:28;10.75;;;3.85;;
27612;SDS011;15036;48.094;-1.690;2023-06-26T05:16:53;14.95;;;4.00;;
27612;SDS011;15036;48.094;-1.690;2023-06-26T05:19:19;13.60;;;4.32;;
27612;SDS011;15036;48.094;-1.690;2023-06-26T05:21:44;13.85;;;3.70;;
27612;SDS011;15036;48.094;-1.690;2023-06-26T05:24:10;12.43;;;3.80;;
27612;SDS011;15036;48.094;-1.690;2023-06-26T05:26:39;12.23;;;4.18;;
27612;SDS011;15036;48.094;-1.690;2023-06-26T05:29:04;10.88;;;4.30;;
27612;SDS011;15036;48.094;-1.690;2023-06-26T05:31:33;13.90;;;4.07;;
27612;SDS011;15036;48.094;-1.690;2023-06-26T05:34:02;10.60;;;3.80;;
27612;SDS011;15036;48.094;-1.690;2023-06-26T05:36:29;13.18;;;3.80;;
27612;SDS011;15036;48.094;-1.690;2023-06-26T05:38:58;10.40;;;3.83;;
27612;SDS011;15036;48.094;-1.690;2023-06-26T05:41:23;10.65;;;3.95;;
27612;SDS011;15036;48.094;-1.690;2023-06-26T05:43:49;16.95;;;4.80;;
27612;SDS011;15036;48.094;-1.690;2023-06-26T05:46:14;12.15;;;4.13;;
27612;SDS011;15036;48.094;-1.690;2023-06-26T05:48:40;12.18;;;4.05;;
27612;SDS011;15036;48.094;-1.690;2023-06-26T05:51:06;14.65;;;4.07;;
27612;SDS011;15036;48.094;-1.690;2023-06-26T05:53:32;14.93;;;4.18;;
27612;SDS011;15036;48.094;-1.690;2023-06-26T05:55:57;8.68;;;3.85;;
27612;SDS011;15036;48.094;-1.690;2023-06-26T05:58:23;12.18;;;3.90;;
27612;SDS011;15036;48.094;-1.690;2023-06-26T06:00:51;14.43;;;4.15;;
27612;SDS011;15036;48.094;-1.690;2023-06-26T06:03:16;10.05;;;4.13;;
27612;SDS011;15036;48.094;-1.690;2023-06-26T06:05:42;10.32;;;3.65;;
27612;SDS011;15036;48.094;-1.690;2023-06-26T06:08:07;13.73;;;4.32;;
27612;SDS011;15036;48.094;-1.690;2023-06-26T06:10:32;14.38;;;4.00;;
27612;SDS011;15036;48.094;-1.690;2023-06-26T06:12:58;11.95;;;3.60;;
27612;SDS011;15036;48.094;-1.690;2023-06-26T06:15:23;14.30;;;3.78;;
27612;SDS011;15036;48.094;-1.690;2023-06-26T06:17:48;10.85;;;3.78;;
27612;SDS011;15036;48.094;-1.690;2023-06-26T06:20:14;14.70;;;3.85;;
27612;SDS011;15036;48.094;-1.690;2023-06-26T06:22:39;12.15;;;4.05;;
27612;SDS011;15036;48.094;-1.690;2023-06-26T06:25:04;10.85;;;3.58;;
27612;SDS011;15036;48.094;-1.690;2023-06-26T06:27:30;11.27;;;3.50;;
27612;SDS011;15036;48.094;-1.690;2023-06-26T06:29:56;13.23;;;3.70;;
27612;SDS011;15036;48.094;-1.690;2023-06-26T06:32:21;17.08;;;3.67;;
27612;SDS011;15036;48.094;-1.690;2023-06-26T06:34:47;13.52;;;3.58;;
27612;SDS011;15036;48.094;-1.690;2023-06-26T06:37:12;11.45;;;3.47;;
27612;SDS011;15036;48.094;-1.690;2023-06-26T06:39:38;16.27;;;3.80;;
27612;SDS011;15036;48.094;-1.690;2023-06-26T06:42:03;11.48;;;3.63;;
27612;SDS011;15036;48.094;-1.690;2023-06-26T06:44:29;11.73;;;3.60;;
27612;SDS011;15036;48.094;-1.690;2023-06-26T06:46:58;9.85;;;3.30;;
27612;SDS011;15036;48.094;-1.690;2023-06-26T06:49:23;11.50;;;3.33;;
27612;SDS011;15036;48.094;-1.690;2023-06-26T06:51:49;11.35;;;3.50;;
27612;SDS011;15036;48.094;-1.690;2023-06-26T06:54:15;12.82;;;3.55;;
27612;SDS011;15036;48.094;-1.690;2023-06-26T06:56:41;18.38;;;3.80;;
27612;SDS011;15036;48.094;-1.690;2023-06-26T06:59:07;12.77;;;3.38;;
27612;SDS011;15036;48.094;-1.690;2023-06-26T07:01:32;13.32;;;3.42;;
27612;SDS011;15036;48.094;-1.690;2023-06-26T07:03:57;13.20;;;3.60;;
27612;SDS011;15036;48.094;-1.690;2023-06-26T07:06:23;13.02;;;3.40;;
27612;SDS011;15036;48.094;-1.690;2023-06-26T07:08:48;12.98;;;3.25;;
27612;SDS011;15036;48.094;-1.690;2023-06-26T07:11:13;14.57;;;2.92;;
27612;SDS011;15036;48.094;-1.690;2023-06-26T07:13:39;14.25;;;3.28;;
27612;SDS011;15036;48.094;-1.690;2023-06-26T07:16:04;13.43;;;3.30;;
27612;SDS011;15036;48.094;-1.690;2023-06-26T07:18:30;10.40;;;2.78;;
27612;SDS011;15036;48.094;-1.690;2023-06-26T07:20:55;11.43;;;3.28;;
27612;SDS011;15036;48.094;-1.690;2023-06-26T07:23:21;9.80;;;2.63;;
27612;SDS011;15036;48.094;-1.690;2023-06-26T07:25:46;8.73;;;3.05;;
27612;SDS011;15036;48.094;-1.690;2023-06-26T07:28:11;8.50;;;2.60;;
27612;SDS011;15036;48.094;-1.690;2023-06-26T07:30:37;13.48;;;3.08;;
27612;SDS011;15036;48.094;-1.690;2023-06-26T07:33:03;8.73;;;2.22;;
27612;SDS011;15036;48.094;-1.690;2023-06-26T07:35:28;9.05;;;2.38;;
27612;SDS011;15036;48.094;-1.690;2023-06-26T07:37:54;9.07;;;2.42;;
27612;SDS011;15036;48.094;-1.690;2023-06-26T07:40:19;8.25;;;2.28;;
27612;SDS011;15036;48.094;-1.690;2023-06-26T07:42:45;12.20;;;2.45;;
27612;SDS011;15036;48.094;-1.690;2023-06-26T07:45:11;8.73;;;2.75;;
27612;SDS011;15036;48.094;-1.690;2023-06-26T07:47:37;10.60;;;2.75;;
27612;SDS011;15036;48.094;-1.690;2023-06-26T07:50:03;12.02;;;2.70;;
27612;SDS011;15036;48.094;-1.690;2023-06-26T07:52:29;15.82;;;2.88;;
27612;SDS011;15036;48.094;-1.690;2023-06-26T07:54:57;12.57;;;2.65;;
27612;SDS011;15036;48.094;-1.690;2023-06-26T07:57:23;7.60;;;2.30;;
27612;SDS011;15036;48.094;-1.690;2023-06-26T07:59:49;11.57;;;2.55;;
27612;SDS011;15036;48.094;-1.690;2023-06-26T08:02:15;10.23;;;2.30;;
27612;SDS011;15036;48.094;-1.690;2023-06-26T08:04:40;12.38;;;2.55;;
27612;SDS011;15036;48.094;-1.690;2023-06-26T08:07:06;11.25;;;2.38;;
27612;SDS011;15036;48.094;-1.690;2023-06-26T08:09:31;9.68;;;2.13;;
27612;SDS011;15036;48.094;-1.690;2023-06-26T08:11:57;7.68;;;2.00;;
27612;SDS011;15036;48.094;-1.690;2023-06-26T08:14:24;9.13;;;2.35;;
27612;SDS011;15036;48.094;-1.690;2023-06-26T08:16:49;12.35;;;2.53;;
27612;SDS011;15036;48.094;-1.690;2023-06-26T08:19:15;7.82;;;2.30;;
27612;SDS011;15036;48.094;-1.690;2023-06-26T08:21:42;7.55;;;2.00;;
27612;SDS011;15036;48.094;-1.690;2023-06-26T08:24:09;8.20;;;2.40;;
27612;SDS011;15036;48.094;-1.690;2023-06-26T08:26:35;8.30;;;2.38;;
27612;SDS011;15036;48.094;-1.690;2023-06-26T08:29:00;10.57;;;2.22;;
27612;SDS011;15036;48.094;-1.690;2023-06-26T08:31:32;9.05;;;2.63;;
27612;SDS011;15036;48.094;-1.690;2023-06-26T08:33:59;8.65;;;2.13;;
27612;SDS011;15036;48.094;-1.690;2023-06-26T08:36:25;14.25;;;2.83;;
27612;SDS011;15036;48.094;-1.690;2023-06-26T08:38:50;6.70;;;2.20;;
27612;SDS011;15036;48.094;-1.690;2023-06-26T08:41:17;7.03;;;2.35;;
27612;SDS011;15036;48.094;-1.690;2023-06-26T08:43:42;10.23;;;2.40;;
27612;SDS011;15036;48.094;-1.690;2023-06-26T08:46:07;9.90;;;2.20;;
27612;SDS011;15036;48.094;-1.690;2023-06-26T08:48:33;5.85;;;2.00;;
27612;SDS011;15036;48.094;-1.690;2023-06-26T08:51:01;7.32;;;2.00;;
27612;SDS011;15036;48.094;-1.690;2023-06-26T08:55:59;8.93;;;1.67;;
27612;SDS011;15036;48.094;-1.690;2023-06-26T08:58:25;9.57;;;2.13;;
27612;SDS011;15036;48.094;-1.690;2023-06-26T09:00:51;11.38;;;2.42;;
27612;SDS011;15036;48.094;-1.690;2023-06-26T09:03:17;9.05;;;1.95;;
27612;SDS011;15036;48.094;-1.690;2023-06-26T09:05:43;6.43;;;1.67;;
27612;SDS011;15036;48.094;-1.690;2023-06-26T09:08:08;6.55;;;1.83;;
27612;SDS011;15036;48.094;-1.690;2023-06-26T09:10:34;8.15;;;2.17;;
27612;SDS011;15036;48.094;-1.690;2023-06-26T09:12:59;6.57;;;2.00;;
27612;SDS011;15036;48.094;-1.690;2023-06-26T09:15:36;6.43;;;2.00;;
27612;SDS011;15036;48.094;-1.690;2023-06-26T09:18:07;6.45;;;2.20;;
27612;SDS011;15036;48.094;-1.690;2023-06-26T09:20:33;7.55;;;1.70;;
27612;SDS011;15036;48.094;-1.690;2023-06-26T09:22:58;5.57;;;2.10;;
27612;SDS011;15036;48.094;-1.690;2023-06-26T09:25:25;6.57;;;1.80;;
27612;SDS011;15036;48.094;-1.690;2023-06-26T09:27:51;7.85;;;1.90;;
27612;SDS011;15036;48.094;-1.690;2023-06-26T09:30:17;6.47;;;2.10;;
27612;SDS011;15036;48.094;-1.690;2023-06-26T09:32:43;8.18;;;1.80;;
27612;SDS011;15036;48.094;-1.690;2023-06-26T09:35:09;5.50;;;1.50;;
27612;SDS011;15036;48.094;-1.690;2023-06-26T09:37:35;5.65;;;1.80;;
27612;SDS011;15036;48.094;-1.690;2023-06-26T09:40:00;7.18;;;1.98;;
27612;SDS011;15036;48.094;-1.690;2023-06-26T09:42:26;7.78;;;2.10;;
27612;SDS011;15036;48.094;-1.690;2023-06-26T09:44:51;5.47;;;1.65;;
27612;SDS011;15036;48.094;-1.690;2023-06-26T09:47:18;7.78;;;2.17;;
27612;SDS011;15036;48.094;-1.690;2023-06-26T09:49:44;5.40;;;1.73;;
27612;SDS011;15036;48.094;-1.690;2023-06-26T09:52:10;7.13;;;1.85;;
27612;SDS011;15036;48.094;-1.690;2023-06-26T09:54:41;6.43;;;1.67;;
27612;SDS011;15036;48.094;-1.690;2023-06-26T09:57:09;5.47;;;1.73;;
27612;SDS011;15036;48.094;-1.690;2023-06-26T09:59:35;6.82;;;1.63;;
27612;SDS011;15036;48.094;-1.690;2023-06-26T10:02:01;8.63;;;2.20;;
27612;SDS011;15036;48.094;-1.690;2023-06-26T10:04:27;5.32;;;1.90;;
27612;SDS011;15036;48.094;-1.690;2023-06-26T10:06:53;6.75;;;1.85;;
27612;SDS011;15036;48.094;-1.690;2023-06-26T10:09:22;7.43;;;1.90;;
27612;SDS011;15036;48.094;-1.690;2023-06-26T10:14:21;4.82;;;1.70;;
27612;SDS011;15036;48.094;-1.690;2023-06-26T10:16:47;5.00;;;1.75;;
27612;SDS011;15036;48.094;-1.690;2023-06-26T10:19:15;6.57;;;2.60;;
27612;SDS011;15036;48.094;-1.690;2023-06-26T10:21:46;7.68;;;2.03;;
27612;SDS011;15036;48.094;-1.690;2023-06-26T10:24:11;9.20;;;2.30;;
27612;SDS011;15036;48.094;-1.690;2023-06-26T10:26:39;5.03;;;1.70;;
27612;SDS011;15036;48.094;-1.690;2023-06-26T10:29:09;7.97;;;1.95;;
27612;SDS011;15036;48.094;-1.690;2023-06-26T10:31:35;6.40;;;1.65;;
27612;SDS011;15036;48.094;-1.690;2023-06-26T10:34:03;6.63;;;2.20;;
27612;SDS011;15036;48.094;-1.690;2023-06-26T10:36:29;4.93;;;2.00;;
27612;SDS011;15036;48.094;-1.690;2023-06-26T10:38:57;5.63;;;2.00;;
27612;SDS011;15036;48.094;-1.690;2023-06-26T10:41:23;7.35;;;2.08;;
27612;SDS011;15036;48.094;-1.690;2023-06-26T10:46:24;10.98;;;2.03;;
27612;SDS011;15036;48.094;-1.690;2023-06-26T10:49:00;5.78;;;2.00;;
27612;SDS011;15036;48.094;-1.690;2023-06-26T10:51:26;6.85;;;1.88;;
27612;SDS011;15036;48.094;-1.690;2023-06-26T10:53:54;4.45;;;2.03;;
27612;SDS011;15036;48.094;-1.690;2023-06-26T10:56:21;6.10;;;1.90;;
27612;SDS011;15036;48.094;-1.690;2023-06-26T10:58:47;7.38;;;1.98;;
27612;SDS011;15036;48.094;-1.690;2023-06-26T11:01:17;5.72;;;1.98;;
27612;SDS011;15036;48.094;-1.690;2023-06-26T11:03:45;5.80;;;1.70;;
27612;SDS011;15036;48.094;-1.690;2023-06-26T11:06:20;6.55;;;2.20;;
27612;SDS011;15036;48.094;-1.690;2023-06-26T11:08:52;7.10;;;2.20;;
27612;SDS011;15036;48.094;-1.690;2023-06-26T11:14:23;5.85;;;1.83;;
27612;SDS011;15036;48.094;-1.690;2023-06-26T11:16:51;7.65;;;1.90;;
27612;SDS011;15036;48.094;-1.690;2023-06-26T11:19:17;6.25;;;1.80;;
27612;SDS011;15036;48.094;-1.690;2023-06-26T11:21:44;6.35;;;2.00;;
27612;SDS011;15036;48.094;-1.690;2023-06-26T11:24:12;8.88;;;2.33;;
27612;SDS011;15036;48.094;-1.690;2023-06-26T11:26:38;11.52;;;2.20;;
27612;SDS011;15036;48.094;-1.690;2023-06-26T11:29:05;5.90;;;2.08;;
27612;SDS011;15036;48.094;-1.690;2023-06-26T11:31:31;7.18;;;1.80;;
27612;SDS011;15036;48.094;-1.690;2023-06-26T11:34:01;5.00;;;1.90;;
27612;SDS011;15036;48.094;-1.690;2023-06-26T11:38:57;7.00;;;2.00;;
27612;SDS011;15036;48.094;-1.690;2023-06-26T11:41:25;9.85;;;2.03;;
27612;SDS011;15036;48.094;-1.690;2023-06-26T11:43:53;5.93;;;2.25;;
27612;SDS011;15036;48.094;-1.690;2023-06-26T11:46:21;5.05;;;1.85;;
27612;SDS011;15036;48.094;-1.690;2023-06-26T11:48:47;8.50;;;2.25;;
27612;SDS011;15036;48.094;-1.690;2023-06-26T11:51:14;4.18;;;1.73;;
27612;SDS011;15036;48.094;-1.690;2023-06-26T11:53:40;6.13;;;1.90;;
27612;SDS011;15036;48.094;-1.690;2023-06-26T11:56:07;6.70;;;2.00;;
27612;SDS011;15036;48.094;-1.690;2023-06-26T12:01:21;4.65;;;1.55;;
27612;SDS011;15036;48.094;-1.690;2023-06-26T12:03:48;8.40;;;2.10;;
27612;SDS011;15036;48.094;-1.690;2023-06-26T12:06:14;7.63;;;2.17;;
27612;SDS011;15036;48.094;-1.690;2023-06-26T12:08:40;7.88;;;2.10;;
27612;SDS011;15036;48.094;-1.690;2023-06-26T12:11:06;6.10;;;2.03;;
27612;SDS011;15036;48.094;-1.690;2023-06-26T12:13:31;5.88;;;1.73;;
27612;SDS011;15036;48.094;-1.690;2023-06-26T12:15:57;6.95;;;1.73;;
27612;SDS011;15036;48.094;-1.690;2023-06-26T12:18:22;6.30;;;1.80;;
27612;SDS011;15036;48.094;-1.690;2023-06-26T12:20:50;6.75;;;1.90;;
27612;SDS011;15036;48.094;-1.690;2023-06-26T12:23:16;7.53;;;1.88;;
27612;SDS011;15036;48.094;-1.690;2023-06-26T12:25:43;6.30;;;1.95;;
27612;SDS011;15036;48.094;-1.690;2023-06-26T12:28:15;6.85;;;1.70;;
27612;SDS011;15036;48.094;-1.690;2023-06-26T12:30:45;5.68;;;2.15;;
27612;SDS011;15036;48.094;-1.690;2023-06-26T12:33:14;5.45;;;1.83;;
27612;SDS011;15036;48.094;-1.690;2023-06-26T12:35:40;6.53;;;1.70;;
27612;SDS011;15036;48.094;-1.690;2023-06-26T12:38:08;5.18;;;1.70;;
27612;SDS011;15036;48.094;-1.690;2023-06-26T12:40:35;4.53;;;1.90;;
27612;SDS011;15036;48.094;-1.690;2023-06-26T12:43:22;4.38;;;1.65;;
27612;SDS011;15036;48.094;-1.690;2023-06-26T12:45:48;7.07;;;1.60;;
27612;SDS011;15036;48.094;-1.690;2023-06-26T12:48:18;5.40;;;1.95;;
27612;SDS011;15036;48.094;-1.690;2023-06-26T12:50:45;5.63;;;1.98;;
27612;SDS011;15036;48.094;-1.690;2023-06-26T12:53:11;5.57;;;1.70;;
27612;SDS011;15036;48.094;-1.690;2023-06-26T12:55:36;5.72;;;1.60;;
27612;SDS011;15036;48.094;-1.690;2023-06-26T12:58:02;5.88;;;1.77;;
27612;SDS011;15036;48.094;-1.690;2023-06-26T13:00:27;5.38;;;1.40;;
27612;SDS011;15036;48.094;-1.690;2023-06-26T13:02:52;5.82;;;1.70;;
27612;SDS011;15036;48.094;-1.690;2023-06-26T13:05:18;7.28;;;1.70;;
27612;SDS011;15036;48.094;-1.690;2023-06-26T13:07:44;6.25;;;1.60;;
27612;SDS011;15036;48.094;-1.690;2023-06-26T13:10:09;4.22;;;1.52;;
27612;SDS011;15036;48.094;-1.690;2023-06-26T13:12:35;5.38;;;1.83;;
27612;SDS011;15036;48.094;-1.690;2023-06-26T13:15:00;6.22;;;1.73;;
27612;SDS011;15036;48.094;-1.690;2023-06-26T13:17:25;4.10;;;1.30;;
27612;SDS011;15036;48.094;-1.690;2023-06-26T13:19:51;5.15;;;1.60;;
27612;SDS011;15036;48.094;-1.690;2023-06-26T13:22:16;5.22;;;1.45;;
27612;SDS011;15036;48.094;-1.690;2023-06-26T13:24:41;5.95;;;2.00;;
27612;SDS011;15036;48.094;-1.690;2023-06-26T13:27:07;7.03;;;2.13;;
27612;SDS011;15036;48.094;-1.690;2023-06-26T13:29:32;4.38;;;1.75;;
27612;SDS011;15036;48.094;-1.690;2023-06-26T13:31:57;4.45;;;1.55;;
27612;SDS011;15036;48.094;-1.690;2023-06-26T13:34:23;5.53;;;1.92;;
27612;SDS011;15036;48.094;-1.690;2023-06-26T13:36:52;3.67;;;1.53;;
27612;SDS011;15036;48.094;-1.690;2023-06-26T13:39:18;8.55;;;1.90;;
27612;SDS011;15036;48.094;-1.690;2023-06-26T13:41:44;5.00;;;1.80;;
27612;SDS011;15036;48.094;-1.690;2023-06-26T13:44:09;5.28;;;1.80;;
27612;SDS011;15036;48.094;-1.690;2023-06-26T13:46:35;5.65;;;1.63;;
27612;SDS011;15036;48.094;-1.690;2023-06-26T13:49:00;5.80;;;2.10;;
27612;SDS011;15036;48.094;-1.690;2023-06-26T13:51:25;5.00;;;1.77;;
27612;SDS011;15036;48.094;-1.690;2023-06-26T13:53:50;4.05;;;1.50;;
27612;SDS011;15036;48.094;-1.690;2023-06-26T13:56:16;5.05;;;1.60;;
27612;SDS011;15036;48.094;-1.690;2023-06-26T13:58:41;5.57;;;1.90;;
27612;SDS011;15036;48.094;-1.690;2023-06-26T14:01:06;5.53;;;1.77;;
27612;SDS011;15036;48.094;-1.690;2023-06-26T14:03:32;3.95;;;1.75;;
27612;SDS011;15036;48.094;-1.690;2023-06-26T14:05:57;5.20;;;1.67;;
27612;SDS011;15036;48.094;-1.690;2023-06-26T14:08:23;5.90;;;1.77;;
27612;SDS011;15036;48.094;-1.690;2023-06-26T14:10:48;5.95;;;1.70;;
27612;SDS011;15036;48.094;-1.690;2023-06-26T14:13:13;4.70;;;1.73;;
27612;SDS011;15036;48.094;-1.690;2023-06-26T14:15:40;4.22;;;1.58;;
27612;SDS011;15036;48.094;-1.690;2023-06-26T14:18:07;5.18;;;1.60;;
27612;SDS011;15036;48.094;-1.690;2023-06-26T14:20:32;5.90;;;1.92;;
27612;SDS011;15036;48.094;-1.690;2023-06-26T14:22:58;7.57;;;1.88;;
27612;SDS011;15036;48.094;-1.690;2023-06-26T14:25:24;4.82;;;1.63;;
27612;SDS011;15036;48.094;-1.690;2023-06-26T14:27:49;4.35;;;1.50;;
27612;SDS011;15036;48.094;-1.690;2023-06-26T14:30:15;7.28;;;1.98;;
27612;SDS011;15036;48.094;-1.690;2023-06-26T14:32:40;5.95;;;1.90;;
27612;SDS011;15036;48.094;-1.690;2023-06-26T14:35:06;6.95;;;1.65;;
27612;SDS011;15036;48.094;-1.690;2023-06-26T14:37:31;5.15;;;1.70;;
27612;SDS011;15036;48.094;-1.690;2023-06-26T14:39:57;3.83;;;1.70;;
27612;SDS011;15036;48.094;-1.690;2023-06-26T14:42:24;6.10;;;1.70;;